Time;durP1;ratioP1;P1;durP2;ratioP2;P2;SDS_P1;SDS_P2;PMS_P1;PMS_P2;Temp;Humidity;BMP_temperature;BMP_pressure;BME280_temperature;BME280_humidity;BME280_pressure;Samples;Min_cycle;Max_cycle;Signal;HPM_P1;HPM_P2
2021/09/06 00:02:16;;;;;;;4.20;2.90;;;;;;;25.51;46.05;101737.58;110120;1235;61069;-90
2021/09/06 00:05:11;;;;;;;3.50;2.50;;;;;;;25.50;46.09;101738.14;110335;1234;72444;-91
2021/09/06 00:08:12;;;;;;;4.20;2.90;;;;;;;25.50;45.97;101740.67;110585;1239;76237;-89
2021/09/06 00:11:28;;;;;;;3.70;2.90;;;;;;;25.49;45.94;101742.16;110460;1235;61198;-87
2021/09/06 00:14:41;;;;;;;;;;;;;;;;;;;;;
2021/09/06 00:17:36;;;;;;;3.90;2.70;;;;;;;25.50;45.95;101749.17;110151;1244;72503;-86
2021/09/06 00:21:05;;;;;;;;;;;;;;;;;;;;;
2021/09/06 00:24:07;;;;;;;4.40;2.90;;;;;;;25.49;46.07;101756.59;110023;1244;61433;-88
2021/09/06 00:27:16;;;;;;;4.40;2.60;;;;;;;25.49;46.15;101757.83;109891;1247;61228;-88
2021/09/06 00:30:09;;;;;;;4.10;2.80;;;;;;;25.49;45.93;101759.10;109884;1247;73291;-86
2021/09/06 00:33:05;;;;;;;;;;;;;;;;;;;;;
2021/09/06 00:36:03;;;;;;;;;;;;;;;;;;;;;
2021/09/06 00:39:27;;;;;;;3.70;2.50;;;;;;;25.48;46.03;101746.94;110095;1244;61137;-89
2021/09/06 00:42:14;;;;;;;4.10;2.70;;;;;;;25.48;45.94;101750.73;110054;1244;73747;-83
2021/09/06 00:45:20;;;;;;;3.70;2.40;;;;;;;25.48;46.11;101762.97;110058;1244;74582;-83
2021/09/06 00:48:33;;;;;;;;;;;;;;;;;;;;;
2021/09/06 00:51:25;;;;;;;4.00;2.40;;;;;;;25.49;45.97;101768.88;109984;1242;61081;-84
2021/09/06 00:54:39;;;;;;;4.20;2.60;;;;;;;25.48;46.03;101769.27;109893;1240;64872;-87
2021/09/06 00:57:25;;;;;;;4.00;2.50;;;;;;;25.47;46.20;101767.71;109659;1250;74368;-88
2021/09/06 01:00:26;;;;;;;3.70;2.40;;;;;;;25.48;46.08;101767.33;109941;1247;61013;-86
2021/09/06 01:03:38;;;;;;;3.80;2.50;;;;;;;25.47;46.22;101760.88;109833;1241;62704;-81
2021/09/06 01:06:32;;;;;;;3.50;2.40;;;;;;;25.48;46.13;101760.85;109978;1244;73396;-87
2021/09/06 01:09:24;;;;;;;;;;;;;;;;;;;;;
2021/09/06 01:12:23;;;;;;;3.80;2.60;;;;;;;25.47;46.14;101761.46;110048;1238;60964;-88
2021/09/06 01:15:46;;;;;;;3.80;2.50;;;;;;;25.47;46.04;101762.38;110042;1238;61386;-85
2021/09/06 01:18:48;;;;;;;4.10;2.60;;;;;;;25.46;46.15;101769.05;110110;1237;72493;-85
2021/09/06 01:21:48;;;;;;;3.40;2.40;;;;;;;25.46;46.13;101765.71;109906;1238;74352;-84
2021/09/06 01:25:04;;;;;;;4.50;2.60;;;;;;;25.46;46.03;101765.88;109953;1238;60986;-88
2021/09/06 01:27:48;;;;;;;3.30;2.10;;;;;;;25.46;46.08;101765.46;109962;1237;61082;-85
2021/09/06 01:30:42;;;;;;;3.60;2.40;;;;;;;25.46;46.10;101761.67;110012;1245;72602;-92
2021/09/06 01:33:56;;;;;;;3.80;2.30;;;;;;;25.46;46.03;101761.50;110160;1235;74502;-86
2021/09/06 01:37:00;;;;;;;3.50;2.30;;;;;;;25.45;45.97;101761.04;110342;1232;61749;-89
2021/09/06 01:39:51;;;;;;;4.30;2.60;;;;;;;25.45;46.06;101761.40;110149;1236;61012;-86
2021/09/06 01:42:53;;;;;;;4.00;2.40;;;;;;;25.45;46.16;101757.62;110144;1243;73954;-82
2021/09/06 01:45:51;;;;;;;3.80;2.70;;;;;;;25.44;46.20;101762.36;110137;1235;65069;-87
2021/09/06 01:48:44;;;;;;;3.60;2.50;;;;;;;25.45;46.18;101766.46;110135;1235;61139;-81
2021/09/06 01:51:44;;;;;;;4.00;2.50;;;;;;;25.44;46.18;101770.09;110160;1235;60896;-87
2021/09/06 01:54:27;;;;;;;;;;;;;;;;;;;;;
2021/09/06 01:57:22;;;;;;;4.60;2.60;;;;;;;25.42;46.22;101776.55;110401;1232;74547;-84
2021/09/06 01:59:58;;;;;;;4.10;2.50;;;;;;;25.42;46.18;101776.56;110585;1236;60972;-86
2021/09/06 02:03:16;;;;;;;4.20;2.70;;;;;;;25.43;46.24;101779.76;110589;1236;61049;-85
2021/09/06 02:06:13;;;;;;;4.80;2.40;;;;;;;25.42;46.25;101782.30;110563;1230;72331;-83
2021/09/06 02:09:01;;;;;;;3.60;2.50;;;;;;;25.42;46.31;101784.34;110609;1229;67000;-85
2021/09/06 02:12:36;;;;;;;3.90;2.40;;;;;;;25.42;46.42;101785.95;110372;1239;61130;-87
2021/09/06 02:15:26;;;;;;;4.00;2.50;;;;;;;25.42;46.59;101786.34;110515;1240;61125;-83
2021/09/06 02:18:40;;;;;;;4.20;2.50;;;;;;;25.41;46.50;101784.90;110695;1236;62664;-85
2021/09/06 02:21:31;;;;;;;4.00;2.20;;;;;;;25.41;46.37;101781.32;110597;1238;66905;-83
2021/09/06 02:24:56;;;;;;;3.50;2.20;;;;;;;25.42;46.47;101780.02;110370;1240;61059;-89
2021/09/06 02:27:45;;;;;;;3.70;2.40;;;;;;;25.41;46.44;101777.55;109918;1246;61133;-82
2021/09/06 02:30:41;;;;;;;3.90;2.60;;;;;;;25.41;46.35;101776.97;109864;1246;64482;-87
2021/09/06 02:33:46;;;;;;;4.00;2.60;;;;;;;25.42;46.41;101777.14;109888;1246;66036;-88
2021/09/06 02:36:35;;;;;;;4.10;2.50;;;;;;;25.41;46.37;101776.08;109925;1246;61024;-85
2021/09/06 02:39:33;;;;;;;3.50;2.30;;;;;;;25.41;46.38;101778.05;109925;1246;61152;-88
2021/09/06 02:42:29;;;;;;;4.00;2.40;;;;;;;25.41;46.58;101774.30;109898;1246;64263;-83
2021/09/06 02:45:47;;;;;;;3.70;2.60;;;;;;;25.41;46.53;101771.94;109870;1248;76340;-85
2021/09/06 02:48:50;;;;;;;3.60;2.40;;;;;;;25.41;46.62;101770.73;109808;1247;61107;-84
2021/09/06 02:51:56;;;;;;;3.60;2.40;;;;;;;25.41;46.56;101765.32;110070;1245;61706;-89
2021/09/06 02:55:02;;;;;;;3.30;2.20;;;;;;;25.40;46.70;101766.14;109885;1240;63858;-86
2021/09/06 02:57:51;;;;;;;4.90;2.50;;;;;;;25.40;46.66;101771.36;109925;1241;65727;-86
2021/09/06 03:00:46;;;;;;;2.90;1.90;;;;;;;25.40;46.64;101773.64;109944;1241;61085;-83
2021/09/06 03:03:48;;;;;;;4.30;2.30;;;;;;;25.40;46.61;101779.05;110017;1246;61063;-89
2021/09/06 03:07:04;;;;;;;4.50;2.60;;;;;;;25.39;46.62;101786.15;110587;1235;62959;-86
2021/09/06 03:10:06;;;;;;;3.70;2.30;;;;;;;25.39;46.72;101788.33;110626;1239;67361;-81
2021/09/06 03:12:32;;;;;;;5.10;2.30;;;;;;;25.39;46.76;101788.48;110728;1229;61143;-85
2021/09/06 03:15:27;;;;;;;3.90;2.60;;;;;;;25.40;46.78;101790.42;110796;1229;61067;-89
2021/09/06 03:18:42;;;;;;;3.70;2.60;;;;;;;25.39;46.65;101795.35;110626;1232;71449;-88
2021/09/06 03:21:45;;;;;;;3.70;2.10;;;;;;;25.39;46.81;101800.23;110575;1230;75344;-87
2021/09/06 03:24:38;;;;;;;4.00;2.50;;;;;;;25.38;46.71;101800.12;110511;1232;61141;-88
2021/09/06 03:28:18;;;;;;;5.10;2.20;;;;;;;25.38;46.90;101806.42;110550;1239;61228;-86
2021/09/06 03:31:06;;;;;;;3.00;2.20;;;;;;;25.38;46.87;101812.90;110334;1234;72620;-90
2021/09/06 03:34:22;;;;;;;4.00;2.20;;;;;;;25.38;46.81;101818.85;110326;1233;74423;-88
2021/09/06 03:37:36;;;;;;;3.80;2.40;;;;;;;25.37;46.86;101823.63;110347;1234;60984;-85
2021/09/06 03:40:26;;;;;;;3.90;2.30;;;;;;;25.38;46.93;101823.73;110409;1232;61108;-87
2021/09/06 03:43:38;;;;;;;3.40;2.20;;;;;;;25.38;46.86;101824.98;110395;1232;73523;-82
2021/09/06 03:46:41;;;;;;;3.80;2.40;;;;;;;25.37;46.88;101825.20;110443;1240;73395;-90
2021/09/06 03:49:27;;;;;;;;;;;;;;;25.37;46.79;101830.44;110540;1232;61153;-90
2021/09/06 03:52:22;;;;;;;4.00;2.30;;;;;;;25.35;46.91;101832.08;110347;1232;61020;-87
2021/09/06 03:55:34;;;;;;;;;;;;;;;;;;;;;
2021/09/06 03:58:21;;;;;;;3.60;2.10;;;;;;;25.35;46.86;101828.45;110559;1234;65726;-84
2021/09/06 04:01:10;;;;;;;3.60;2.50;;;;;;;25.36;46.79;101830.00;111023;1227;61888;-86
2021/09/06 04:04:14;;;;;;;3.20;2.10;;;;;;;25.36;46.86;101831.27;111886;1227;60998;-83
2021/09/06 04:07:33;;;;;;;3.30;2.00;;;;;;;25.36;46.80;101829.12;111843;1219;72398;-86
2021/09/06 04:10:20;;;;;;;3.70;2.30;;;;;;;25.35;46.92;101828.61;111954;1226;74376;-88
2021/09/06 04:13:14;;;;;;;4.20;2.40;;;;;;;25.36;46.83;101831.47;111408;1227;61031;-88
2021/09/06 04:16:11;;;;;;;;;;;;;;;;;;;;;
2021/09/06 04:19:30;;;;;;;;;;;;;;;;;;;;;
2021/09/06 04:22:25;;;;;;;4.10;2.40;;;;;;;25.36;46.87;101840.31;111098;1226;74450;-84
2021/09/06 04:25:42;;;;;;;3.30;2.30;;;;;;;25.36;46.83;101845.34;111059;1225;59915;-86
2021/09/06 04:28:38;;;;;;;5.10;2.30;;;;;;;25.35;46.66;101842.86;111133;1233;60985;-86
2021/09/06 04:31:55;;;;;;;4.60;2.60;;;;;;;25.34;46.41;101846.85;111067;1227;71155;-84
2021/09/06 04:35:01;;;;;;;;;;;;;;;;;;;;;
2021/09/06 04:38:16;;;;;;;7.00;2.30;;;;;;;25.34;46.04;101850.35;110595;1231;61099;-83
2021/09/06 04:41:25;;;;;;;4.70;2.60;;;;;;;25.32;45.78;101855.11;110273;1235;60294;-83
2021/09/06 04:44:20;;;;;;;4.30;2.80;;;;;;;25.31;45.55;101855.73;110257;1235;73548;-87
2021/09/06 04:47:06;;;;;;;4.20;2.50;;;;;;;25.32;45.45;101859.10;110112;1243;75555;-85
2021/09/06 04:50:10;;;;;;;4.50;2.50;;;;;;;25.30;45.18;101859.94;109938;1239;61034;-85
2021/09/06 04:53:19;;;;;;;5.60;2.70;;;;;;;25.30;44.89;101861.62;110075;1241;61065;-89
2021/09/06 04:56:23;;;;;;;;;;;;;;;;;;;;;
2021/09/06 04:59:05;;;;;;;5.50;2.50;;;;;;;25.28;44.28;101863.91;110013;1244;74337;-91
2021/09/06 05:02:33;;;;;;;4.40;2.60;;;;;;;25.27;44.20;101860.91;110131;1236;61037;-87
2021/09/06 05:05:23;;;;;;;;;;;;;;;;;;;;;
2021/09/06 05:08:15;;;;;;;;;;;;;;;;;;;;;
2021/09/06 05:11:45;;;;;;;4.60;2.60;;;;;;;25.24;43.85;101865.81;110029;1238;74528;-87
2021/09/06 05:14:45;;;;;;;3.80;2.40;;;;;;;25.24;43.52;101869.06;109888;1240;61043;-83
2021/09/06 05:17:51;;;;;;;4.30;2.50;;;;;;;25.23;43.35;101871.77;110038;1237;61203;-86
2021/09/06 05:21:04;;;;;;;5.90;2.90;;;;;;;25.22;43.07;101872.42;110009;1237;62503;-87
2021/09/06 05:23:53;;;;;;;4.60;2.90;;;;;;;25.22;42.70;101870.95;109790;1247;75611;-91
2021/09/06 05:27:01;;;;;;;4.80;3.00;;;;;;;25.21;42.48;101869.23;109953;1238;61530;-88
2021/09/06 05:29:52;;;;;;;5.10;3.10;;;;;;;25.21;42.43;101867.61;110113;1236;61508;-83
2021/09/06 05:33:01;;;;;;;4.80;3.00;;;;;;;25.21;42.21;101870.86;110069;1238;62519;-85
2021/09/06 05:36:16;;;;;;;4.80;2.80;;;;;;;25.21;42.01;101875.88;109933;1246;73278;-87
2021/09/06 05:39:23;;;;;;;6.10;3.10;;;;;;;25.21;41.76;101875.21;109992;1245;61055;-87
2021/09/06 05:42:28;;;;;;;5.50;3.10;;;;;;;25.19;41.34;101870.48;109927;1247;61024;-88
2021/09/06 05:45:45;;;;;;;;;;;;;;;;;;;;;
2021/09/06 05:48:44;;;;;;;4.30;2.60;;;;;;;25.19;40.94;101878.79;109833;1249;74767;-89
2021/09/06 05:51:53;;;;;;;5.10;3.00;;;;;;;25.19;40.90;101882.39;109688;1247;61012;-83
2021/09/06 05:55:18;;;;;;;;;;;;;;;;;;;;;
2021/09/06 05:58:05;;;;;;;9.10;2.80;;;;;;;25.19;40.71;101876.58;108866;1254;72449;-80
2021/09/06 06:00:53;;;;;;;10.70;3.20;;;;;;;25.19;40.42;101877.30;108685;1254;67395;-82
2021/09/06 06:04:11;;;;;;;12.90;2.80;;;;;;;25.20;40.26;101878.14;108928;1253;61210;-90
2021/09/06 06:07:39;;;;;;;;;;;;;;;;;;;;;
2021/09/06 06:10:31;;;;;;;8.10;3.00;;;;;;;25.22;40.12;101880.20;108863;1253;72762;-86
2021/09/06 06:13:28;;;;;;;;;;;;;;;;;;;;;
2021/09/06 06:16:30;;;;;;;5.80;2.30;;;;;;;25.21;39.64;101878.23;109526;1250;62389;-90
2021/09/06 06:19:46;;;;;;;7.60;2.90;;;;;;;25.19;39.34;101882.52;109144;1246;61156;-86
2021/09/06 06:23:05;;;;;;;7.70;2.70;;;;;;;25.19;39.31;101883.42;109529;1248;73397;-89
2021/09/06 06:26:32;;;;;;;9.50;2.70;;;;;;;25.19;39.23;101890.13;109801;1247;73555;-86
2021/09/06 06:29:42;;;;;;;8.10;2.70;;;;;;;25.18;38.74;101896.28;109624;1238;61081;-84
2021/09/06 06:32:40;;;;;;;9.10;2.70;;;;;;;25.14;38.37;101904.70;109761;1245;61634;-83
2021/09/06 06:35:39;;;;;;;12.70;3.00;;;;;;;25.13;37.77;101901.37;110029;1237;74086;-85
2021/09/06 06:38:27;;;;;;;11.40;2.70;;;;;;;25.12;37.61;101904.34;110113;1235;74689;-86
2021/09/06 06:41:44;;;;;;;12.80;3.30;;;;;;;25.09;37.30;101904.17;109880;1238;61038;-85
2021/09/06 06:44:40;;;;;;;10.00;3.10;;;;;;;25.08;36.93;101907.44;110148;1242;60991;-83
2021/09/06 06:48:05;;;;;;;10.10;3.60;;;;;;;25.07;36.94;101904.48;110075;1242;72515;-84
2021/09/06 06:50:34;;;;;;;12.40;3.50;;;;;;;25.06;36.34;101902.77;109724;1238;74716;-82
2021/09/06 06:53:47;;;;;;;10.60;2.80;;;;;;;25.04;36.03;101902.86;109903;1243;61033;-85
2021/09/06 06:56:16;;;;;;;9.90;3.50;;;;;;;25.03;35.57;101908.36;109773;1241;61046;-82
2021/09/06 06:59:07;;;;;;;;;;;;;;;;;;;;;
2021/09/06 07:01:53;;;;;;;13.80;2.90;;;;;;;24.94;34.91;101912.27;110174;1235;75376;-83
2021/09/06 07:04:49;;;;;;;12.80;3.30;;;;;;;24.90;34.44;101912.69;109945;1241;61108;-82
2021/09/06 07:07:58;;;;;;;9.40;2.70;;;;;;;24.85;34.22;101911.58;110006;1240;61064;-82
2021/09/06 07:10:54;;;;;;;;;;;;;;;;;;;;;
2021/09/06 07:13:49;;;;;;;12.20;3.00;;;;;;;24.82;33.53;101908.24;110251;1240;74727;-82
2021/09/06 07:17:06;;;;;;;12.10;3.10;;;;;;;24.83;33.46;101915.15;110069;1242;61689;-83
2021/09/06 07:19:52;;;;;;;14.50;2.50;;;;;;;24.86;33.29;101919.11;109992;1241;61030;-84
2021/09/06 07:23:10;;;;;;;5.50;2.70;;;;;;;24.86;33.10;101918.17;110075;1235;72637;-82
2021/09/06 07:25:45;;;;;;;7.70;2.70;;;;;;;24.89;33.09;101925.23;109966;1238;74602;-84
2021/09/06 07:28:58;;;;;;;7.70;2.50;;;;;;;24.91;33.12;101925.02;110259;1241;61047;-86
2021/09/06 07:32:09;;;;;;;7.70;2.70;;;;;;;24.92;32.92;101923.84;109810;1246;61095;-86
2021/09/06 07:35:07;;;;;;;7.40;2.50;;;;;;;24.93;32.72;101922.35;109029;1245;72532;-84
2021/09/06 07:37:54;;;;;;;7.40;2.40;;;;;;;24.97;32.66;101925.39;108931;1244;74527;-82
2021/09/06 07:40:23;;;;;;;11.60;2.90;;;;;;;24.97;32.52;101923.22;109172;1243;61060;-83
2021/09/06 07:43:02;;;;;;;11.40;2.60;;;;;;;24.98;32.44;101920.45;109158;1244;61697;-82
2021/09/06 07:46:01;;;;;;;9.20;2.80;;;;;;;24.99;32.03;101922.91;109121;1242;72688;-82
2021/09/06 07:48:59;;;;;;;5.40;2.50;;;;;;;24.98;32.24;101917.38;109441;1240;75742;-83
2021/09/06 07:51:54;;;;;;;10.00;2.50;;;;;;;24.95;31.82;101913.95;109638;1247;60995;-85
2021/09/06 07:55:42;;;;;;;8.40;2.60;;;;;;;24.93;31.52;101915.39;109830;1237;61076;-86
2021/09/06 07:58:12;;;;;;;11.10;2.40;;;;;;;24.93;31.81;101911.63;109911;1241;71542;-85
2021/09/06 08:01:28;;;;;;;4.80;2.10;;;;;;;24.96;31.63;101922.57;110146;1241;73195;-83
2021/09/06 08:04:18;;;;;;;4.90;2.20;;;;;;;24.92;31.06;101924.96;110400;1240;61115;-84
2021/09/06 08:07:10;;;;;;;7.50;2.20;;;;;;;24.86;30.64;101926.28;110352;1231;61176;-84
2021/09/06 08:09:56;;;;;;;8.70;2.30;;;;;;;24.83;30.68;101922.70;110514;1235;73840;-82
2021/09/06 08:13:01;;;;;;;5.30;2.20;;;;;;;24.81;30.41;101921.80;110595;1228;74688;-83
2021/09/06 08:15:53;;;;;;;8.40;2.50;;;;;;;24.80;30.41;101916.30;110635;1226;61189;-81
2021/09/06 08:18:24;;;;;;;17.00;2.70;;;;;;;24.82;30.44;101922.45;110605;1234;61023;-81
2021/09/06 08:20:59;;;;;;;10.60;2.70;;;;;;;24.86;30.51;101929.75;110504;1232;73684;-81
2021/09/06 08:23:45;;;;;;;6.60;2.20;;;;;;;24.88;30.55;101926.71;110597;1228;75711;-82
2021/09/06 08:26:22;;;;;;;9.90;2.60;;;;;;;24.90;30.71;101928.54;110545;1229;61097;-81
2021/09/06 08:29:09;;;;;;;6.60;2.30;;;;;;;24.89;30.48;101925.74;110805;1228;61151;-86
2021/09/06 08:32:22;;;;;;;7.90;2.40;;;;;;;24.89;30.63;101928.08;110745;1226;74130;-82
2021/09/06 08:35:11;;;;;;;7.00;2.40;;;;;;;24.90;30.54;101935.53;110257;1231;74550;-83
2021/09/06 08:38:30;;;;;;;9.80;2.40;;;;;;;24.90;30.50;101933.07;110417;1231;61014;-88
2021/09/06 08:41:56;;;;;;;;;;;;;;;;;;;;;
2021/09/06 08:44:40;;;;;;;;;;;;;;;;;;;;;
2021/09/06 08:47:42;;;;;;;16.50;2.70;;;;;;;24.93;30.47;101925.24;110250;1234;75565;-85
2021/09/06 08:50:50;;;;;;;14.30;2.60;;;;;;;24.93;30.38;101926.34;109929;1236;61529;-83
2021/09/06 08:53:38;;;;;;;10.30;2.80;;;;;;;24.94;30.43;101927.36;109971;1234;61833;-83
2021/09/06 08:56:28;;;;;;;;;;;;;;;;;;;;;
2021/09/06 08:59:20;;;;;;;7.80;2.70;;;;;;;24.92;30.34;101922.98;109767;1236;74488;-81
2021/09/06 09:02:21;;;;;;;7.40;2.50;;;;;;;24.96;30.46;101918.61;109891;1242;61120;-82
2021/09/06 09:05:41;;;;;;;6.60;2.30;;;;;;;24.99;30.56;101914.63;109943;1234;61070;-83
2021/09/06 09:08:17;;;;;;;11.60;2.60;;;;;;;25.00;30.52;101916.30;109689;1234;73820;-82
2021/09/06 09:11:00;;;;;;;18.70;3.20;;;;;;;25.01;30.71;101920.54;109804;1236;74115;-82
2021/09/06 09:13:45;;;;;;;12.10;2.40;;;;;;;25.03;30.55;101920.65;110583;1232;61058;-83
2021/09/06 09:16:56;;;;;;;;;;;;;;;;;;;;;
2021/09/06 09:19:40;;;;;;;8.10;2.60;;;;;;;25.01;30.29;101917.48;110762;1228;73328;-82
2021/09/06 09:22:55;;;;;;;5.40;2.30;;;;;;;25.03;30.50;101924.03;111046;1223;75573;-84
2021/09/06 09:25:59;;;;;;;7.00;2.50;;;;;;;25.04;30.77;101918.34;111027;1228;61083;-80
2021/09/06 09:28:55;;;;;;;7.10;2.80;;;;;;;25.07;30.69;101914.73;111295;1220;60992;-80
2021/09/06 09:31:24;;;;;;;6.30;2.50;;;;;;;25.08;30.63;101911.60;110796;1231;73997;-83
2021/09/06 09:34:10;;;;;;;7.20;2.50;;;;;;;25.10;30.90;101914.33;110974;1230;74289;-82
2021/09/06 09:36:35;;;;;;;6.70;2.60;;;;;;;25.12;31.01;101916.35;111421;1230;61088;-82
2021/09/06 09:39:18;;;;;;;9.20;2.50;;;;;;;25.15;30.84;101914.58;111099;1223;60996;-83
2021/09/06 09:41:48;;;;;;;8.50;2.50;;;;;;;25.16;30.97;101912.16;111443;1224;73320;-82
2021/09/06 09:44:22;;;;;;;6.30;2.60;;;;;;;25.18;31.14;101907.67;112035;1227;74895;-81
2021/09/06 09:46:52;;;;;;;5.90;2.30;;;;;;;25.20;31.12;101910.01;111767;1223;60072;-83
2021/09/06 09:49:45;;;;;;;7.30;2.50;;;;;;;25.22;30.99;101911.01;110837;1233;61047;-81
2021/09/06 09:52:11;;;;;;;5.10;2.40;;;;;;;25.23;31.00;101909.84;110934;1226;72225;-83
2021/09/06 09:55:03;;;;;;;7.30;2.60;;;;;;;25.24;30.96;101909.23;110837;1226;61101;-83
2021/09/06 09:57:49;;;;;;;6.20;2.40;;;;;;;25.24;30.79;101909.57;110770;1226;61239;-85
2021/09/06 10:00:46;;;;;;;;;;;;;;;;;;;;;
2021/09/06 10:03:13;;;;;;;6.20;2.60;;;;;;;25.22;30.59;101908.80;111556;1227;72348;-82
2021/09/06 10:06:00;;;;;;;7.50;2.40;;;;;;;25.22;30.61;101907.35;110721;1227;75263;-82
2021/09/06 10:08:53;;;;;;;6.30;2.50;;;;;;;25.23;30.73;101906.58;110882;1224;61025;-81
2021/09/06 10:11:48;;;;;;;8.90;2.90;;;;;;;25.24;30.70;101905.42;110896;1232;61123;-81
2021/09/06 10:14:47;;;;;;;7.10;2.50;;;;;;;25.24;30.77;101908.30;110445;1228;73550;-85
2021/09/06 10:17:37;;;;;;;4.70;2.40;;;;;;;25.24;30.79;101905.42;110611;1231;74340;-82
2021/09/06 10:20:29;;;;;;;5.90;2.40;;;;;;;25.24;30.73;101899.83;110531;1230;61438;-84
2021/09/06 10:23:27;;;;;;;7.10;2.90;;;;;;;25.24;30.72;101898.75;110775;1235;61164;-93
2021/09/06 10:26:44;;;;;;;8.10;2.60;;;;;;;25.21;30.33;101896.61;110508;1236;72432;-83
2021/09/06 10:30:04;;;;;;;5.90;2.60;;;;;;;25.19;30.33;101897.64;110577;1231;75821;-84
2021/09/06 10:32:57;;;;;;;7.90;2.60;;;;;;;25.17;30.27;101896.94;111152;1228;60995;-88
2021/09/06 10:36:01;;;;;;;5.20;2.80;;;;;;;25.12;29.94;101893.83;111380;1230;61098;-88
2021/09/06 10:39:09;;;;;;;6.80;3.00;;;;;;;25.10;29.86;101888.73;110888;1234;73594;-88
2021/09/06 10:42:20;;;;;;;6.00;2.70;;;;;;;25.11;29.91;101884.36;110573;1237;74884;-88
2021/09/06 10:45:18;;;;;;;6.00;2.90;;;;;;;25.13;30.00;101879.96;110377;1239;61471;-86
2021/09/06 10:48:30;;;;;;;;;;;;;;;;;;;;;
2021/09/06 10:51:44;;;;;;;6.20;3.00;;;;;;;25.15;30.33;101883.61;110191;1239;73265;-87
2021/09/06 10:54:43;;;;;;;5.70;2.70;;;;;;;25.15;30.17;101877.95;110538;1229;75130;-89
2021/09/06 10:57:42;;;;;;;4.90;2.70;;;;;;;25.15;30.30;101880.64;110527;1235;61292;-86
2021/09/06 11:00:49;;;;;;;5.40;2.80;;;;;;;25.15;30.13;101871.48;110319;1241;61040;-84
2021/09/06 11:03:52;;;;;;;8.30;3.00;;;;;;;25.16;30.48;101867.51;110246;1240;72614;-85
2021/09/06 11:07:08;;;;;;;;;;;;;;;;;;;;;
2021/09/06 11:10:10;;;;;;;64.50;7.50;;;;;;;25.15;30.64;101871.33;110122;1241;61001;-85
2021/09/06 11:13:20;;;;;;;58.20;7.20;;;;;;;25.16;30.83;101867.30;110447;1237;61177;-86
2021/09/06 11:16:24;;;;;;;45.70;5.90;;;;;;;25.15;30.86;101862.33;110729;1233;73781;-89
2021/09/06 11:19:11;;;;;;;44.30;5.40;;;;;;;25.15;30.72;101864.67;110900;1233;74683;-85
2021/09/06 11:22:29;;;;;;;24.90;4.40;;;;;;;25.15;30.87;101863.20;110807;1230;61057;-88
2021/09/06 11:25:52;;;;;;;52.70;5.20;;;;;;;25.15;30.60;101859.83;111044;1232;61130;-80
2021/09/06 11:29:05;;;;;;;39.20;5.00;;;;;;;25.13;30.80;101853.80;110748;1229;72617;-86
2021/09/06 11:32:14;;;;;;;31.90;4.80;;;;;;;25.14;30.69;101849.05;110673;1236;74496;-88
2021/09/06 11:35:21;;;;;;;;;;;;;;;;;;;;;
2021/09/06 11:41:57;;;;;;;17.60;3.90;;;;;;;25.13;30.60;101837.98;110579;1239;73557;-84
2021/09/06 11:45:14;;;;;;;21.80;4.00;;;;;;;25.13;30.58;101836.70;110563;1238;74503;-84
2021/09/06 11:48:18;;;;;;;19.00;3.70;;;;;;;25.13;30.53;101832.05;110026;1244;61111;-86
2021/09/06 11:51:34;;;;;;;15.50;3.50;;;;;;;25.13;30.56;101826.11;109881;1246;61411;-84
2021/09/06 11:54:38;;;;;;;;;;;;;;;;;;;;;
2021/09/06 11:57:32;;;;;;;15.80;3.80;;;;;;;25.14;30.71;101821.86;109874;1248;74951;-85
2021/09/06 12:00:22;;;;;;;25.20;4.00;;;;;;;25.15;30.61;101821.44;109896;1247;62826;-89
2021/09/06 12:03:23;;;;;;;9.00;3.10;;;;;;;25.14;30.64;101819.15;109841;1247;61557;-89
2021/09/06 12:06:42;;;;;;;;;;;;;;;;;;;;;
2021/09/06 12:09:57;;;;;;;34.70;5.50;;;;;;;25.12;30.35;101812.23;109910;1247;76030;-90
2021/09/06 12:13:39;;;;;;;;;;;;;;;;;;;;;
2021/09/06 12:16:28;;;;;;;10.80;4.20;;;;;;;25.14;30.82;101816.23;109603;1248;61007;-87
2021/09/06 12:19:30;;;;;;;;;;;;;;;;;;;;;
2021/09/06 12:22:39;;;;;;;29.00;4.70;;;;;;;25.12;30.45;101805.80;109629;1247;74658;-87
2021/09/06 12:25:45;;;;;;;25.90;4.60;;;;;;;25.13;30.54;101799.25;109938;1243;61094;-91
2021/09/06 12:28:52;;;;;;;32.80;4.50;;;;;;;25.14;30.42;101795.17;110091;1240;61002;-84
2021/09/06 12:32:00;;;;;;;25.80;4.20;;;;;;;25.16;30.67;101794.15;110238;1235;73430;-85
2021/09/06 12:35:16;;;;;;;27.60;4.60;;;;;;;25.17;30.54;101792.08;110160;1241;75331;-85
2021/09/06 12:38:15;;;;;;;;;;;;;;;;;;;;;
2021/09/06 12:41:29;;;;;;;29.10;5.00;;;;;;;25.20;30.82;101789.70;110335;1240;61345;-83
2021/09/06 12:44:18;;;;;;;16.80;4.30;;;;;;;25.20;30.72;101789.14;110130;1242;71647;-83
2021/09/06 12:47:19;;;;;;;;;;;;;;;;;;;;;
2021/09/06 12:49:58;;;;;;;20.40;4.10;;;;;;;25.22;30.72;101785.06;109908;1242;61343;-82
2021/09/06 12:52:30;;;;;;;17.10;4.10;;;;;;;25.23;30.80;101780.33;110009;1239;61258;-82
2021/09/06 12:55:37;;;;;;;12.60;3.80;;;;;;;25.23;30.85;101782.08;110441;1237;73269;-85
2021/09/06 12:58:25;;;;;;;14.10;4.10;;;;;;;25.23;30.85;101781.19;110495;1235;75562;-80
2021/09/06 13:01:10;;;;;;;10.90;3.60;;;;;;;25.24;30.82;101780.00;110550;1228;61264;-83
2021/09/06 13:04:04;;;;;;;15.40;4.00;;;;;;;25.25;30.99;101771.49;110605;1229;61231;-80
2021/09/06 13:07:00;;;;;;;16.40;3.70;;;;;;;25.26;30.69;101774.50;110609;1227;72243;-80
2021/09/06 13:09:52;;;;;;;9.80;3.40;;;;;;;25.27;30.75;101769.39;110517;1228;74940;-83
2021/09/06 13:12:27;;;;;;;14.30;3.90;;;;;;;25.28;30.89;101770.19;110906;1230;61576;-82
2021/09/06 13:15:07;;;;;;;11.50;3.50;;;;;;;25.29;30.77;101766.70;111028;1223;61904;-83
2021/09/06 13:17:42;;;;;;;11.90;3.60;;;;;;;25.30;30.71;101769.14;111018;1223;72224;-82
2021/09/06 13:20:31;;;;;;;;;;;;;;;;;;;;;
2021/09/06 13:23:09;;;;;;;15.80;3.50;;;;;;;25.32;30.87;101765.59;111532;1230;61356;-88
2021/09/06 13:26:17;;;;;;;15.60;4.00;;;;;;;25.33;30.80;101764.83;111674;1227;61253;-82
2021/09/06 13:29:03;;;;;;;11.50;3.20;;;;;;;25.33;30.78;101768.58;111719;1225;73717;-88
2021/09/06 13:32:05;;;;;;;13.20;3.30;;;;;;;25.33;30.75;101764.78;111722;1220;74498;-90
2021/09/06 13:35:28;;;;;;;11.10;3.50;;;;;;;25.34;30.74;101763.85;111327;1229;61104;-88
2021/09/06 13:38:26;;;;;;;;;;;;;;;;;;;;;
2021/09/06 13:41:48;;;;;;;9.30;3.30;;;;;;;25.33;30.81;101761.91;110872;1232;71190;-90
2021/09/06 13:45:06;;;;;;;;;;;;;;;;;;;;;
2021/09/06 13:48:16;;;;;;;10.10;3.00;;;;;;;25.34;31.17;101756.61;110546;1238;61178;-90
2021/09/06 13:51:40;;;;;;;10.00;3.30;;;;;;;25.35;31.07;101759.13;110345;1241;61220;-86
2021/09/06 13:54:49;;;;;;;9.00;3.10;;;;;;;25.35;31.07;101758.75;110152;1237;73378;-84
2021/09/06 13:57:34;;;;;;;8.00;3.10;;;;;;;25.35;31.25;101755.30;110118;1244;75770;-84
2021/09/06 14:00:43;;;;;;;9.70;3.30;;;;;;;25.36;31.24;101753.43;109918;1243;61053;-86
2021/09/06 14:03:18;;;;;;;7.20;3.10;;;;;;;25.36;31.20;101756.85;109889;1241;61217;-83
2021/09/06 14:06:20;;;;;;;9.40;3.20;;;;;;;25.37;31.32;101756.39;109881;1243;70117;-82
2021/09/06 14:09:23;;;;;;;8.50;3.10;;;;;;;25.38;31.39;101750.37;109879;1235;73213;-82
2021/09/06 14:12:14;;;;;;;9.20;3.30;;;;;;;25.39;31.43;101749.23;109984;1235;60840;-81
2021/09/06 14:14:53;;;;;;;8.40;3.20;;;;;;;25.40;31.41;101754.05;110150;1234;61260;-84
2021/09/06 14:17:46;;;;;;;8.30;3.40;;;;;;;25.41;31.55;101757.91;110413;1237;72679;-83
2021/09/06 14:20:40;;;;;;;7.00;3.10;;;;;;;25.42;31.57;101752.81;110915;1233;74241;-81
2021/09/06 14:23:38;;;;;;;10.20;3.00;;;;;;;25.42;31.57;101755.31;110740;1229;61729;-80
2021/09/06 14:26:44;;;;;;;;;;;;;;;;;;;;;
2021/09/06 14:29:41;;;;;;;8.20;2.90;;;;;;;25.42;31.69;101755.63;110879;1225;73471;-84
2021/09/06 14:33:07;;;;;;;8.30;3.10;;;;;;;25.43;31.60;101753.96;111593;1225;74537;-85
2021/09/06 14:36:23;;;;;;;;;;;;;;;;;;;;;
2021/09/06 14:39:41;;;;;;;6.60;2.80;;;;;;;25.44;31.82;101756.05;111940;1227;60992;-87
2021/09/06 14:42:32;;;;;;;6.20;2.80;;;;;;;25.43;31.82;101755.38;111398;1231;73382;-87
2021/09/06 14:45:38;;;;;;;6.80;3.20;;;;;;;25.43;31.96;101756.64;111285;1226;67199;-82
2021/09/06 14:48:53;;;;;;;9.00;3.10;;;;;;;25.44;31.99;101753.53;111236;1226;61255;-88
2021/09/06 14:52:32;;;;;;;6.10;2.70;;;;;;;25.45;32.06;101754.95;111040;1229;61131;-88